Chicago, Illinois
Current Conditions -  °F | °C
As of 7:53 PM on Wednesday 24 Dec 2014 (Local Time) from KMDW Reporting Station
Overcast Overcast  
Wind Chill: 31°   Ceiling: 1100
Heat Index: 38°   Visibility: 9mi
Dew Point: 34°   Wind: 10mph
Humidity: 86%   Direction: 270°W
Pressure: 29.56"   Gusts: NA
Location:  41.88°N, 87.63°W
Report Text: KMDW 250153Z 27009KT 9SM OVC011 03/01 A2956 RMK AO2 SLP015 T00330011
Loading
Personal Weather Stations






























Interactive Weather Map New forecast layout! Learn more

10-Day Weather Forecast

Advertisements
Track Severe Weather on mobile